createdAt,value
2023-04-29T00:00:40.319Z,0
2023-04-29T00:01:40.332Z,0
2023-04-29T00:02:40.477Z,0
2023-04-29T00:03:40.522Z,0
2023-04-29T00:04:40.526Z,0
2023-04-29T00:05:40.505Z,0
2023-04-29T00:06:40.323Z,0
2023-04-29T00:07:40.340Z,0
2023-04-29T00:08:40.321Z,0
2023-04-29T00:09:40.330Z,0
2023-04-29T00:10:40.328Z,0
2023-04-29T00:11:40.327Z,0
2023-04-29T00:12:40.313Z,0
2023-04-29T00:13:40.326Z,0
2023-04-29T00:14:40.334Z,0
2023-04-29T00:15:40.323Z,0
2023-04-29T00:16:40.345Z,0
2023-04-29T00:17:40.344Z,0
2023-04-29T00:18:40.321Z,0
2023-04-29T00:19:40.333Z,0
2023-04-29T00:20:40.332Z,0
2023-04-29T00:21:40.326Z,0
2023-04-29T00:22:40.350Z,0
2023-04-29T00:23:40.322Z,0
2023-04-29T00:24:40.336Z,0
2023-04-29T00:25:40.318Z,0
2023-04-29T00:26:40.341Z,0
2023-04-29T00:27:40.327Z,0
2023-04-29T00:28:40.333Z,0
2023-04-29T00:29:40.349Z,0
2023-04-29T00:30:40.353Z,0
2023-04-29T00:31:40.340Z,0
2023-04-29T00:32:40.355Z,0
2023-04-29T00:33:40.331Z,0
2023-04-29T00:34:40.334Z,0
2023-04-29T00:35:40.326Z,0
2023-04-29T00:36:40.331Z,0
2023-04-29T00:37:40.341Z,0
2023-04-29T00:38:40.312Z,0
2023-04-29T00:39:40.335Z,0
2023-04-29T00:40:40.325Z,0
2023-04-29T00:41:40.330Z,0
2023-04-29T00:42:40.321Z,0
2023-04-29T00:43:40.331Z,0
2023-04-29T00:44:40.342Z,0
2023-04-29T00:45:40.379Z,0
2023-04-29T00:46:40.524Z,0
2023-04-29T00:47:40.363Z,0
2023-04-29T00:48:40.326Z,0
2023-04-29T00:49:40.328Z,0
2023-04-29T00:50:40.308Z,0
2023-04-29T00:51:40.315Z,0
2023-04-29T00:52:40.336Z,0
2023-04-29T00:53:40.327Z,0
2023-04-29T00:54:40.394Z,0
2023-04-29T00:55:40.325Z,0
2023-04-29T00:56:40.329Z,0
2023-04-29T00:57:40.327Z,0
2023-04-29T00:58:40.327Z,0
2023-04-29T00:59:40.335Z,0
2023-04-29T01:00:40.322Z,0
2023-04-29T01:01:40.352Z,0
2023-04-29T01:02:40.394Z,0
2023-04-29T01:03:40.474Z,0
2023-04-29T01:04:40.388Z,0
2023-04-29T01:05:40.319Z,0
2023-04-29T01:06:40.326Z,0
2023-04-29T01:07:40.335Z,0
2023-04-29T01:08:40.330Z,0
2023-04-29T01:09:40.332Z,0
2023-04-29T01:10:40.321Z,0
2023-04-29T01:11:40.311Z,0
2023-04-29T01:12:40.329Z,0
2023-04-29T01:13:40.325Z,0
2023-04-29T01:14:40.326Z,0
2023-04-29T01:15:40.364Z,0
2023-04-29T01:16:40.363Z,0
2023-04-29T01:17:40.420Z,0
2023-04-29T01:18:40.320Z,0
2023-04-29T01:19:40.332Z,0
2023-04-29T01:20:40.327Z,0
2023-04-29T01:21:40.323Z,0
2023-04-29T01:22:40.341Z,0
2023-04-29T01:23:40.318Z,0
2023-04-29T01:24:40.326Z,0
2023-04-29T01:25:40.315Z,0
2023-04-29T01:26:40.316Z,0
2023-04-29T01:27:40.325Z,0
2023-04-29T01:28:40.320Z,0
2023-04-29T01:29:40.325Z,0
2023-04-29T01:30:40.310Z,0
2023-04-29T01:31:40.378Z,0
2023-04-29T01:32:40.363Z,0
2023-04-29T01:33:40.326Z,0
2023-04-29T01:34:40.359Z,0
2023-04-29T01:35:40.319Z,0
2023-04-29T01:36:40.327Z,0
2023-04-29T01:37:40.336Z,0
2023-04-29T01:38:40.326Z,0
2023-04-29T01:39:40.329Z,0
2023-04-29T01:40:40.325Z,0
2023-04-29T01:41:40.320Z,0
2023-04-29T01:42:40.332Z,0
2023-04-29T01:43:40.331Z,0
2023-04-29T01:44:40.325Z,0
2023-04-29T01:45:40.318Z,0
2023-04-29T01:46:40.377Z,0
2023-04-29T01:47:40.326Z,0
2023-04-29T01:48:40.325Z,0
2023-04-29T01:49:40.332Z,0
2023-04-29T01:50:40.336Z,0
2023-04-29T01:51:40.324Z,0
2023-04-29T01:52:40.340Z,0
2023-04-29T01:53:40.334Z,0
2023-04-29T01:54:40.327Z,0
2023-04-29T01:55:40.321Z,0
2023-04-29T01:56:40.326Z,0
2023-04-29T01:57:40.321Z,0
2023-04-29T01:58:40.327Z,0
2023-04-29T01:59:40.325Z,0
2023-04-29T02:00:40.347Z,0
2023-04-29T02:01:40.316Z,0
2023-04-29T02:02:40.423Z,0
2023-04-29T02:03:40.628Z,0
2023-04-29T02:04:40.378Z,0
2023-04-29T02:05:40.326Z,0
2023-04-29T02:06:40.322Z,0
2023-04-29T02:07:40.338Z,0
2023-04-29T02:08:40.319Z,0
2023-04-29T02:09:40.328Z,0
2023-04-29T02:10:40.332Z,0
2023-04-29T02:11:40.338Z,0
2023-04-29T02:12:40.325Z,0
2023-04-29T02:13:40.328Z,0
2023-04-29T02:14:40.351Z,0
2023-04-29T02:15:40.327Z,0
2023-04-29T02:16:40.352Z,0
2023-04-29T02:17:40.367Z,0
2023-04-29T02:18:40.331Z,0
2023-04-29T02:19:40.343Z,0
2023-04-29T02:20:40.338Z,0
2023-04-29T02:21:40.330Z,0
2023-04-29T02:22:40.340Z,0
2023-04-29T02:23:40.324Z,0
2023-04-29T02:24:40.339Z,0
2023-04-29T02:25:40.332Z,0
2023-04-29T02:26:40.325Z,0
2023-04-29T02:27:40.333Z,0
2023-04-29T02:28:40.328Z,0
2023-04-29T02:29:40.339Z,0
2023-04-29T02:30:40.329Z,0
2023-04-29T02:31:40.349Z,0
2023-04-29T02:32:40.358Z,0
2023-04-29T02:33:40.337Z,0
2023-04-29T02:34:40.347Z,0
2023-04-29T02:35:40.321Z,0
2023-04-29T02:36:40.338Z,0
2023-04-29T02:37:40.348Z,0
2023-04-29T02:38:40.340Z,0
2023-04-29T02:39:40.343Z,0
2023-04-29T02:40:40.337Z,0
2023-04-29T02:41:40.334Z,0
2023-04-29T02:42:40.328Z,0
2023-04-29T02:43:40.334Z,0
2023-04-29T02:44:40.340Z,0
2023-04-29T02:45:40.346Z,0
2023-04-29T02:46:40.324Z,0
2023-04-29T02:47:40.367Z,0
2023-04-29T02:48:40.325Z,0
2023-04-29T02:49:40.354Z,0
2023-04-29T02:50:40.361Z,0
2023-04-29T02:51:40.348Z,0
2023-04-29T02:52:40.345Z,0
2023-04-29T02:53:40.345Z,0
2023-04-29T02:54:40.343Z,0
2023-04-29T02:55:40.345Z,0
2023-04-29T02:56:40.323Z,0
2023-04-29T02:57:40.328Z,0
2023-04-29T02:58:40.338Z,0
2023-04-29T02:59:40.337Z,0
2023-04-29T03:00:40.319Z,0
2023-04-29T03:01:40.525Z,0
2023-04-29T03:02:40.569Z,0
2023-04-29T03:03:40.521Z,0
2023-04-29T03:04:40.350Z,0
2023-04-29T03:05:40.340Z,0
2023-04-29T03:06:40.332Z,0
2023-04-29T03:07:40.371Z,0
2023-04-29T03:08:40.355Z,0
2023-04-29T03:09:40.343Z,0
2023-04-29T03:10:41.721Z,0
2023-04-29T03:11:40.347Z,0
2023-04-29T03:12:40.333Z,0
2023-04-29T03:13:40.335Z,0
2023-04-29T03:14:40.342Z,0
2023-04-29T03:15:40.328Z,0
2023-04-29T03:16:40.373Z,0
2023-04-29T03:17:40.441Z,0
2023-04-29T03:18:40.328Z,1
2023-04-29T03:19:40.329Z,1
2023-04-29T03:20:40.368Z,3
2023-04-29T03:21:40.328Z,3
2023-04-29T03:22:40.354Z,5
2023-04-29T03:23:40.332Z,7
2023-04-29T03:24:40.341Z,7
2023-04-29T03:25:40.375Z,9
2023-04-29T03:26:40.356Z,11
2023-04-29T03:27:40.355Z,12
2023-04-29T03:28:40.335Z,14
2023-04-29T03:29:40.380Z,16
2023-04-29T03:30:40.335Z,18
2023-04-29T03:31:40.357Z,20
2023-04-29T03:32:40.387Z,22
2023-04-29T03:33:40.325Z,23
2023-04-29T03:34:40.386Z,27
2023-04-29T03:35:40.318Z,29
2023-04-29T03:36:40.330Z,33
2023-04-29T03:37:40.490Z,35
2023-04-29T03:38:40.320Z,36
2023-04-29T03:39:40.324Z,38
2023-04-29T03:40:40.321Z,40
2023-04-29T03:41:40.337Z,42
2023-04-29T03:42:40.326Z,44
2023-04-29T03:43:40.330Z,46
2023-04-29T03:44:40.338Z,47
2023-04-29T03:45:40.330Z,49
2023-04-29T03:46:40.471Z,51
2023-04-29T03:47:40.338Z,53
2023-04-29T03:48:40.328Z,57
2023-04-29T03:49:40.330Z,58
2023-04-29T03:50:40.320Z,60
2023-04-29T03:51:40.321Z,62
2023-04-29T03:52:40.345Z,66
2023-04-29T03:53:40.323Z,71
2023-04-29T03:54:40.328Z,77
2023-04-29T03:55:40.321Z,82
2023-04-29T03:56:40.324Z,88
2023-04-29T03:57:42.264Z,99
2023-04-29T03:58:40.323Z,110
2023-04-29T03:59:40.316Z,121
2023-04-29T04:00:40.314Z,132
2023-04-29T04:01:40.359Z,140
2023-04-29T04:02:40.672Z,143
2023-04-29T04:03:40.443Z,141
2023-04-29T04:04:40.564Z,138
2023-04-29T04:05:40.319Z,136
2023-04-29T04:06:40.308Z,138
2023-04-29T04:07:40.330Z,138
2023-04-29T04:08:40.326Z,149
2023-04-29T04:09:40.329Z,158
2023-04-29T04:10:40.327Z,173
2023-04-29T04:11:40.322Z,193
2023-04-29T04:12:42.074Z,217
2023-04-29T04:13:40.315Z,241
2023-04-29T04:14:40.332Z,269
2023-04-29T04:15:40.329Z,302
2023-04-29T04:16:40.354Z,339
2023-04-29T04:17:40.413Z,379
2023-04-29T04:18:40.323Z,423
2023-04-29T04:19:40.313Z,466
2023-04-29T04:20:40.321Z,497
2023-04-29T04:21:40.330Z,530
2023-04-29T04:22:40.333Z,565
2023-04-29T04:23:40.314Z,617
2023-04-29T04:24:40.336Z,676
2023-04-29T04:25:40.323Z,728
2023-04-29T04:26:40.317Z,781
2023-04-29T04:27:40.339Z,827
2023-04-29T04:28:40.379Z,871
2023-04-29T04:29:40.328Z,917
2023-04-29T04:30:40.313Z,952
2023-04-29T04:31:40.415Z,982
2023-04-29T04:32:40.445Z,1011
2023-04-29T04:33:40.316Z,1048
2023-04-29T04:34:40.340Z,1083
2023-04-29T04:35:40.325Z,1137
2023-04-29T04:36:40.313Z,1185
2023-04-29T04:37:40.502Z,1242
2023-04-29T04:38:40.324Z,1297
2023-04-29T04:39:40.333Z,1336
2023-04-29T04:40:40.325Z,1371
2023-04-29T04:41:40.324Z,1386
2023-04-29T04:42:40.316Z,1389
2023-04-29T04:43:40.328Z,1421
2023-04-29T04:44:40.334Z,1400
2023-04-29T04:45:40.363Z,1404
2023-04-29T04:46:40.330Z,1417
2023-04-29T04:47:40.344Z,1441
2023-04-29T04:48:40.318Z,1457
2023-04-29T04:49:40.325Z,1463
2023-04-29T04:50:40.321Z,1437
2023-04-29T04:51:40.329Z,1400
2023-04-29T04:52:40.342Z,1369
2023-04-29T04:53:40.335Z,1325
2023-04-29T04:54:40.338Z,1306
2023-04-29T04:55:40.336Z,1288
2023-04-29T04:56:40.322Z,1286
2023-04-29T04:57:40.324Z,1299
2023-04-29T04:58:40.320Z,1341
2023-04-29T04:59:40.336Z,1391
2023-04-29T05:00:40.324Z,1443
2023-04-29T05:01:40.417Z,1511
2023-04-29T05:02:40.446Z,1596
2023-04-29T05:03:40.592Z,1693
2023-04-29T05:04:40.331Z,1833
2023-04-29T05:05:40.320Z,2045
2023-04-29T05:06:40.317Z,2283
2023-04-29T05:07:40.400Z,2283
2023-04-29T05:08:40.337Z,2657
2023-04-29T05:09:40.342Z,2766
2023-04-29T05:10:40.341Z,2812
2023-04-29T05:11:40.351Z,2823
2023-04-29T05:12:40.357Z,2842
2023-04-29T05:13:40.337Z,2945
2023-04-29T05:14:40.323Z,3170
2023-04-29T05:15:40.356Z,3363
2023-04-29T05:16:40.417Z,3561
2023-04-29T05:17:40.356Z,3787
2023-04-29T05:18:40.322Z,3868
2023-04-29T05:19:40.329Z,3780
2023-04-29T05:20:40.309Z,3774
2023-04-29T05:21:40.344Z,3754
2023-04-29T05:22:40.334Z,3675
2023-04-29T05:23:40.418Z,3719
2023-04-29T05:24:40.343Z,3868
2023-04-29T05:25:40.399Z,3944
2023-04-29T05:26:40.327Z,3961
2023-04-29T05:27:40.323Z,3973
2023-04-29T05:28:40.368Z,4034
2023-04-29T05:29:40.358Z,4049
2023-04-29T05:30:40.357Z,4080
2023-04-29T05:31:40.345Z,4117
2023-04-29T05:32:40.403Z,4174
2023-04-29T05:33:40.341Z,4244
2023-04-29T05:34:40.382Z,4305
2023-04-29T05:35:40.367Z,4379
2023-04-29T05:36:40.357Z,4305
2023-04-29T05:37:40.349Z,4324
2023-04-29T05:38:40.368Z,4410
2023-04-29T05:39:40.374Z,4543
2023-04-29T05:40:40.358Z,4637
2023-04-29T05:41:40.359Z,4683
2023-04-29T05:42:40.349Z,4718
2023-04-29T05:43:40.370Z,4755
2023-04-29T05:44:40.356Z,4685
2023-04-29T05:45:40.377Z,4556
2023-04-29T05:46:40.433Z,4397
2023-04-29T05:47:40.396Z,4233
2023-04-29T05:48:40.344Z,4141
2023-04-29T05:49:40.331Z,4077
2023-04-29T05:50:40.362Z,4060
2023-04-29T05:51:40.387Z,3961
2023-04-29T05:52:40.397Z,3824
2023-04-29T05:53:40.365Z,3706
2023-04-29T05:54:40.389Z,3817
2023-04-29T05:55:40.365Z,4053
2023-04-29T05:56:40.404Z,4108
2023-04-29T05:57:40.319Z,3968
2023-04-29T05:58:40.377Z,3677
2023-04-29T05:59:40.328Z,3527
2023-04-29T06:00:40.367Z,3553
2023-04-29T06:01:40.325Z,3865
2023-04-29T06:02:54.954Z,4486
2023-04-29T06:03:40.582Z,5116
2023-04-29T06:04:40.442Z,5243
2023-04-29T06:05:40.568Z,5155
2023-04-29T06:06:40.314Z,5474
2023-04-29T06:07:40.372Z,5474
2023-04-29T06:08:40.368Z,5575
2023-04-29T06:09:40.348Z,4930
2023-04-29T06:10:40.335Z,3949
2023-04-29T06:11:40.332Z,3326
2023-04-29T06:12:40.388Z,3118
2023-04-29T06:13:40.337Z,3116
2023-04-29T06:14:40.367Z,3185
2023-04-29T06:15:40.314Z,3279
2023-04-29T06:16:40.540Z,3194
2023-04-29T06:17:40.397Z,2869
2023-04-29T06:18:40.323Z,2617
2023-04-29T06:19:40.329Z,2313
2023-04-29T06:20:40.323Z,1950
2023-04-29T06:21:40.326Z,1655
2023-04-29T06:22:40.361Z,1693
2023-04-29T06:23:40.322Z,1863
2023-04-29T06:24:40.341Z,1717
2023-04-29T06:25:40.333Z,1496
2023-04-29T06:26:40.326Z,1505
2023-04-29T06:27:40.320Z,1574
2023-04-29T06:28:40.335Z,1703
2023-04-29T06:29:40.339Z,1916
2023-04-29T06:30:40.329Z,2370
2023-04-29T06:31:40.345Z,2851
2023-04-29T06:32:40.350Z,3035
2023-04-29T06:33:40.328Z,3028
2023-04-29T06:34:40.340Z,3159
2023-04-29T06:35:40.347Z,3111
2023-04-29T06:36:40.328Z,3085
2023-04-29T06:37:40.344Z,3103
2023-04-29T06:38:40.336Z,3078
2023-04-29T06:39:40.340Z,2967
2023-04-29T06:40:40.321Z,2683
2023-04-29T06:41:40.329Z,2309
2023-04-29T06:42:40.337Z,2304
2023-04-29T06:43:40.329Z,2582
2023-04-29T06:44:40.336Z,3172
2023-04-29T06:45:40.311Z,3761
2023-04-29T06:46:40.428Z,3870
2023-04-29T06:47:40.394Z,4377
2023-04-29T06:48:40.330Z,4784
2023-04-29T06:49:40.326Z,5321
2023-04-29T06:50:40.323Z,6097
2023-04-29T06:51:40.323Z,5522
2023-04-29T06:52:40.346Z,4185
2023-04-29T06:53:40.314Z,3771
2023-04-29T06:54:40.350Z,3380
2023-04-29T06:55:40.350Z,3161
2023-04-29T06:56:40.321Z,3424
2023-04-29T06:57:40.336Z,3894
2023-04-29T06:58:40.325Z,3959
2023-04-29T06:59:40.345Z,3385
2023-04-29T07:00:40.335Z,2799
2023-04-29T07:01:42.500Z,3019
2023-04-29T07:02:40.452Z,3832
2023-04-29T07:03:40.659Z,4878
2023-04-29T07:04:40.427Z,5719
2023-04-29T07:05:40.349Z,5883
2023-04-29T07:06:40.345Z,5828
2023-04-29T07:07:40.335Z,5828
2023-04-29T07:08:40.314Z,5459
2023-04-29T07:09:40.364Z,5087
2023-04-29T07:10:40.332Z,4545
2023-04-29T07:11:40.323Z,4458
2023-04-29T07:12:40.334Z,4246
2023-04-29T07:13:40.332Z,3955
2023-04-29T07:14:40.345Z,3546
2023-04-29T07:15:40.336Z,3223
2023-04-29T07:16:40.391Z,3028
2023-04-29T07:17:40.356Z,3013
2023-04-29T07:18:40.323Z,2901
2023-04-29T07:19:40.335Z,2663
2023-04-29T07:20:40.332Z,2527
2023-04-29T07:21:40.332Z,2628
2023-04-29T07:22:40.339Z,2558
2023-04-29T07:23:40.337Z,2683
2023-04-29T07:24:40.339Z,2868
2023-04-29T07:25:40.327Z,2901
2023-04-29T07:26:40.328Z,2774
2023-04-29T07:27:40.326Z,2445
2023-04-29T07:28:40.322Z,2125
2023-04-29T07:29:40.324Z,1900
2023-04-29T07:30:40.385Z,2160
2023-04-29T07:31:40.333Z,2294
2023-04-29T07:32:40.336Z,2268
2023-04-29T07:33:40.324Z,2123
2023-04-29T07:34:40.343Z,1876
2023-04-29T07:35:40.342Z,1767
2023-04-29T07:36:40.317Z,1966
2023-04-29T07:37:42.723Z,2154
2023-04-29T07:38:40.349Z,1992
2023-04-29T07:39:40.333Z,1861
2023-04-29T07:40:40.315Z,1887
2023-04-29T07:41:40.335Z,1977
2023-04-29T07:42:40.316Z,2198
2023-04-29T07:43:42.280Z,2460
2023-04-29T07:44:40.332Z,2794
2023-04-29T07:45:40.329Z,3111
2023-04-29T07:46:40.464Z,3750
2023-04-29T07:47:40.373Z,4396
2023-04-29T07:48:40.311Z,4921
2023-04-29T07:49:40.329Z,5118
2023-04-29T07:50:40.358Z,5295
2023-04-29T07:51:40.323Z,5297
2023-04-29T07:52:40.334Z,5424
2023-04-29T07:53:40.322Z,5664
2023-04-29T07:54:40.334Z,6075
2023-04-29T07:55:40.317Z,6723
2023-04-29T07:56:40.311Z,7468
2023-04-29T07:57:40.320Z,8707
2023-04-29T07:58:40.323Z,9483
2023-04-29T07:59:40.331Z,9632
2023-04-29T08:00:40.316Z,6884
2023-04-29T08:01:40.314Z,4808
2023-04-29T08:02:40.449Z,3739
2023-04-29T08:03:41.817Z,3229
2023-04-29T08:04:40.599Z,2879
2023-04-29T08:05:40.390Z,2609
2023-04-29T08:06:40.316Z,2606
2023-04-29T08:07:40.351Z,2606
2023-04-29T08:08:40.319Z,3028
2023-04-29T08:09:40.316Z,2803
2023-04-29T08:10:40.317Z,2468
2023-04-29T08:11:40.320Z,2624
2023-04-29T08:12:40.318Z,2939
2023-04-29T08:13:40.321Z,2958
2023-04-29T08:14:40.343Z,2915
2023-04-29T08:15:40.318Z,2685
2023-04-29T08:16:40.406Z,2322
2023-04-29T08:17:40.349Z,2090
2023-04-29T08:18:40.318Z,1992
2023-04-29T08:19:40.325Z,2246
2023-04-29T08:20:40.321Z,2772
2023-04-29T08:21:40.311Z,3308
2023-04-29T08:22:40.326Z,3841
2023-04-29T08:23:40.324Z,4630
2023-04-29T08:24:40.330Z,4713
2023-04-29T08:25:40.325Z,4735
2023-04-29T08:26:40.323Z,5098
2023-04-29T08:27:40.321Z,5385
2023-04-29T08:28:40.313Z,5501
2023-04-29T08:29:40.498Z,5837
2023-04-29T08:30:40.317Z,5607
2023-04-29T08:31:40.413Z,5435
2023-04-29T08:32:40.356Z,5231
2023-04-29T08:33:40.322Z,5487
2023-04-29T08:34:40.334Z,5352
2023-04-29T08:35:40.315Z,5328
2023-04-29T08:36:40.314Z,5039
2023-04-29T08:37:40.335Z,4622
2023-04-29T08:38:40.316Z,4208
2023-04-29T08:39:40.321Z,3782
2023-04-29T08:40:40.319Z,3614
2023-04-29T08:41:40.320Z,3535
2023-04-29T08:42:40.316Z,3518
2023-04-29T08:43:40.322Z,3734
2023-04-29T08:44:40.326Z,4069
2023-04-29T08:45:40.345Z,4007
2023-04-29T08:46:40.315Z,3920
2023-04-29T08:47:40.350Z,4016
2023-04-29T08:48:42.495Z,4091
2023-04-29T08:49:40.322Z,4008
2023-04-29T08:50:40.309Z,3973
2023-04-29T08:51:40.330Z,3997
2023-04-29T08:52:40.326Z,3743
2023-04-29T08:53:40.318Z,3236
2023-04-29T08:54:40.330Z,2912
2023-04-29T08:55:40.321Z,2733
2023-04-29T08:56:40.461Z,2582
2023-04-29T08:57:40.408Z,2298
2023-04-29T08:58:40.319Z,2257
2023-04-29T08:59:40.318Z,2394
2023-04-29T09:00:40.309Z,2455
2023-04-29T09:01:40.374Z,2362
2023-04-29T09:02:40.430Z,2386
2023-04-29T09:03:40.426Z,2868
2023-04-29T09:04:40.359Z,3330
2023-04-29T09:05:40.308Z,3391
2023-04-29T09:06:40.319Z,3334
2023-04-29T09:07:40.330Z,3334
2023-04-29T09:08:40.310Z,3247
2023-04-29T09:09:40.325Z,3115
2023-04-29T09:10:40.316Z,3150
2023-04-29T09:11:40.322Z,2989
2023-04-29T09:12:40.309Z,2768
2023-04-29T09:13:40.313Z,2906
2023-04-29T09:14:40.326Z,3157
2023-04-29T09:15:40.317Z,3380
2023-04-29T09:16:40.334Z,3933
2023-04-29T09:17:40.380Z,4630
2023-04-29T09:18:40.309Z,4672
2023-04-29T09:19:40.324Z,4926
2023-04-29T09:20:40.343Z,5721
2023-04-29T09:21:40.314Z,6631
2023-04-29T09:22:40.324Z,6747
2023-04-29T09:23:40.303Z,6821
2023-04-29T09:24:40.326Z,6703
2023-04-29T09:25:40.320Z,6049
2023-04-29T09:26:40.329Z,5369
2023-04-29T09:27:40.324Z,4912
2023-04-29T09:28:40.312Z,4899
2023-04-29T09:29:40.353Z,5013
2023-04-29T09:30:40.338Z,5286
2023-04-29T09:31:40.349Z,5400
2023-04-29T09:32:40.362Z,5396
2023-04-29T09:33:40.318Z,5183
2023-04-29T09:34:40.348Z,4591
2023-04-29T09:35:40.329Z,3795
2023-04-29T09:36:40.325Z,3179
2023-04-29T09:37:40.332Z,3113
2023-04-29T09:38:40.325Z,3544
2023-04-29T09:39:40.332Z,3813
2023-04-29T09:40:54.427Z,3850
2023-04-29T09:41:40.347Z,3878
2023-04-29T09:42:40.325Z,4042
2023-04-29T09:43:40.325Z,4115
2023-04-29T09:44:40.362Z,3948
2023-04-29T09:45:40.324Z,3701
2023-04-29T09:46:40.630Z,3492
2023-04-29T09:47:40.374Z,3186
2023-04-29T09:48:40.323Z,2899
2023-04-29T09:49:40.330Z,2762
2023-04-29T09:50:40.319Z,2643
2023-04-29T09:51:40.333Z,2534
2023-04-29T09:52:40.342Z,2340
2023-04-29T09:53:40.327Z,2167
2023-04-29T09:54:40.341Z,1959
2023-04-29T09:55:40.327Z,1798
2023-04-29T09:56:40.317Z,1791
2023-04-29T09:57:41.583Z,1946
2023-04-29T09:58:40.370Z,2082
2023-04-29T09:59:40.332Z,2206
2023-04-29T10:00:40.331Z,2257
2023-04-29T10:01:40.408Z,2082
2023-04-29T10:02:40.420Z,1728
2023-04-29T10:03:40.460Z,1655
2023-04-29T10:04:40.475Z,1710
2023-04-29T10:05:40.329Z,1787
2023-04-29T10:06:40.332Z,2302
2023-04-29T10:07:40.340Z,2302
2023-04-29T10:08:40.315Z,4412
2023-04-29T10:09:40.329Z,4731
2023-04-29T10:10:40.327Z,4954
2023-04-29T10:11:40.321Z,5459
2023-04-29T10:12:40.332Z,5732
2023-04-29T10:13:40.326Z,5527
2023-04-29T10:14:40.359Z,5501
2023-04-29T10:15:40.355Z,5955
2023-04-29T10:16:40.344Z,6508
2023-04-29T10:17:40.323Z,6897
2023-04-29T10:18:40.349Z,7535
2023-04-29T10:19:40.333Z,8137
2023-04-29T10:20:40.326Z,8956
2023-04-29T10:21:40.318Z,9488
2023-04-29T10:22:40.336Z,9827
2023-04-29T10:23:40.326Z,10001
2023-04-29T10:24:40.338Z,10259
2023-04-29T10:25:40.313Z,10878
2023-04-29T10:26:40.329Z,11859
2023-04-29T10:27:40.314Z,21165
2023-04-29T10:28:40.331Z,22352
2023-04-29T10:29:40.337Z,22328
2023-04-29T10:30:40.305Z,20321
2023-04-29T10:31:40.363Z,16983
2023-04-29T10:32:50.547Z,19375
2023-04-29T10:33:40.350Z,17722
2023-04-29T10:34:40.343Z,17569
2023-04-29T10:35:40.312Z,18476
2023-04-29T10:36:40.336Z,20256
2023-04-29T10:37:40.337Z,22640
2023-04-29T10:38:40.352Z,22516
2023-04-29T10:39:40.323Z,20094
2023-04-29T10:40:40.314Z,18341
2023-04-29T10:41:40.325Z,15197
2023-04-29T10:42:40.317Z,9577
2023-04-29T10:43:40.306Z,11560
2023-04-29T10:44:40.333Z,13125
2023-04-29T10:45:40.314Z,10860
2023-04-29T10:46:40.369Z,10756
2023-04-29T10:47:40.365Z,10098
2023-04-29T10:48:40.320Z,13562
2023-04-29T10:49:40.330Z,12966
2023-04-29T10:50:40.330Z,14410
2023-04-29T10:51:40.307Z,12036
2023-04-29T10:52:40.336Z,16920
2023-04-29T10:53:40.320Z,21832
2023-04-29T10:54:40.336Z,15130
2023-04-29T10:55:40.308Z,11711
2023-04-29T10:56:40.317Z,10738
2023-04-29T10:57:40.322Z,9068
2023-04-29T10:58:40.321Z,7310
2023-04-29T10:59:40.331Z,6819
2023-04-29T11:00:40.371Z,7772
2023-04-29T11:01:40.323Z,9160
2023-04-29T11:02:40.383Z,14106
2023-04-29T11:03:40.490Z,13337
2023-04-29T11:04:40.352Z,11831
2023-04-29T11:05:40.313Z,11647
2023-04-29T11:06:40.321Z,16577
2023-04-29T11:07:40.335Z,16577
2023-04-29T11:08:40.316Z,11180
2023-04-29T11:09:40.328Z,11328
2023-04-29T11:10:40.323Z,10902
2023-04-29T11:11:40.325Z,9719
2023-04-29T11:12:40.321Z,9099
2023-04-29T11:13:40.320Z,9077
2023-04-29T11:14:40.340Z,8027
2023-04-29T11:15:40.320Z,7977
2023-04-29T11:16:40.344Z,8017
2023-04-29T11:17:40.425Z,8989
2023-04-29T11:18:40.328Z,10627
2023-04-29T11:19:40.321Z,11293
2023-04-29T11:20:40.321Z,12753
2023-04-29T11:21:40.316Z,16533
2023-04-29T11:22:40.343Z,15914
2023-04-29T11:23:40.333Z,19403
2023-04-29T11:24:40.335Z,17141
2023-04-29T11:25:40.335Z,20258
2023-04-29T11:26:40.325Z,16513
2023-04-29T11:27:40.355Z,15088
2023-04-29T11:28:40.321Z,13059
2023-04-29T11:29:40.338Z,11717
2023-04-29T11:30:40.330Z,11752
2023-04-29T11:31:40.395Z,12594
2023-04-29T11:32:40.712Z,11724
2023-04-29T11:33:40.328Z,12511
2023-04-29T11:34:40.336Z,15851
2023-04-29T11:35:40.324Z,17691
2023-04-29T11:36:40.332Z,12511
2023-04-29T11:37:40.446Z,13149
2023-04-29T11:38:40.335Z,10808
2023-04-29T11:39:40.339Z,9241
2023-04-29T11:40:40.332Z,8390
2023-04-29T11:41:40.326Z,8058
2023-04-29T11:42:40.324Z,8185
2023-04-29T11:43:40.320Z,8653
2023-04-29T11:44:40.338Z,9274
2023-04-29T11:45:40.366Z,9241
2023-04-29T11:46:40.389Z,8578
2023-04-29T11:47:40.336Z,7840
2023-04-29T11:48:40.324Z,7149
2023-04-29T11:49:40.349Z,6388
2023-04-29T11:50:40.319Z,5658
2023-04-29T11:51:40.325Z,4930
2023-04-29T11:52:40.350Z,4252
2023-04-29T11:53:40.328Z,3985
2023-04-29T11:54:40.329Z,3985
2023-04-29T11:55:40.323Z,4064
2023-04-29T11:56:40.319Z,4353
2023-04-29T11:57:40.316Z,4912
2023-04-29T11:58:40.325Z,5835
2023-04-29T11:59:40.321Z,6688
2023-04-29T12:00:40.318Z,7323
2023-04-29T12:01:40.317Z,7573
2023-04-29T12:02:40.518Z,7468
2023-04-29T12:03:40.569Z,6808
2023-04-29T12:04:40.520Z,6206
2023-04-29T12:05:40.423Z,5835
2023-04-29T12:06:40.315Z,6038
2023-04-29T12:07:40.338Z,6038
2023-04-29T12:08:40.318Z,5474
2023-04-29T12:09:40.327Z,4884
2023-04-29T12:10:40.325Z,4173
2023-04-29T12:11:40.321Z,3914
2023-04-29T12:12:40.316Z,3789
2023-04-29T12:13:40.317Z,3618
2023-04-29T12:14:40.330Z,3400
2023-04-29T12:15:40.503Z,3144
2023-04-29T12:16:40.415Z,3065
2023-04-29T12:17:40.376Z,3057
2023-04-29T12:18:40.330Z,3070
2023-04-29T12:19:40.346Z,3124
2023-04-29T12:20:40.346Z,3019
2023-04-29T12:21:40.320Z,2862
2023-04-29T12:22:40.341Z,2750
2023-04-29T12:23:40.313Z,2586
2023-04-29T12:24:40.341Z,2429
2023-04-29T12:25:40.327Z,2525
2023-04-29T12:26:40.347Z,2722
2023-04-29T12:27:40.325Z,3015
2023-04-29T12:28:40.314Z,3166
2023-04-29T12:29:40.341Z,3258
2023-04-29T12:30:40.319Z,3374
2023-04-29T12:31:40.362Z,3761
2023-04-29T12:32:40.412Z,4189
2023-04-29T12:33:40.321Z,4456
2023-04-29T12:34:40.331Z,4748
2023-04-29T12:35:40.321Z,4961
2023-04-29T12:36:40.307Z,5006
2023-04-29T12:37:40.349Z,5031
2023-04-29T12:38:40.317Z,5157
2023-04-29T12:39:40.333Z,5254
2023-04-29T12:40:40.314Z,5315
2023-04-29T12:41:40.331Z,5404
2023-04-29T12:42:40.313Z,5503
2023-04-29T12:43:40.318Z,5553
2023-04-29T12:44:40.345Z,5365
2023-04-29T12:45:45.966Z,5002
2023-04-29T12:46:44.717Z,4661
2023-04-29T12:47:44.781Z,4230
2023-04-29T12:48:44.682Z,3841
2023-04-29T12:49:44.691Z,3570
2023-04-29T12:50:44.673Z,3599
2023-04-29T12:51:44.657Z,3870
2023-04-29T12:52:44.697Z,4018
2023-04-29T12:53:44.669Z,4335
2023-04-29T12:54:44.675Z,4652
2023-04-29T12:55:44.672Z,5054
2023-04-29T12:56:44.688Z,5527
2023-04-29T12:57:44.682Z,5804
2023-04-29T12:58:44.661Z,5756
2023-04-29T12:59:44.700Z,5584
2023-04-29T13:00:44.736Z,5914
2023-04-29T13:01:44.715Z,6235
2023-04-29T13:02:44.768Z,6408
2023-04-29T13:03:44.876Z,6513
2023-04-29T13:04:45.188Z,6735
2023-04-29T13:05:44.685Z,7236
2023-04-29T13:06:44.668Z,7866
2023-04-29T13:07:44.693Z,7866
2023-04-29T13:08:44.671Z,10932
2023-04-29T13:09:44.672Z,13820
2023-04-29T13:10:44.675Z,11840
2023-04-29T13:11:44.669Z,18596
2023-04-29T13:12:44.663Z,16677
2023-04-29T13:13:44.663Z,11849
2023-04-29T13:14:44.689Z,8058
2023-04-29T13:15:44.668Z,7077
2023-04-29T13:16:44.703Z,7426
2023-04-29T13:17:44.696Z,9145
2023-04-29T13:18:55.587Z,7177
2023-04-29T13:19:51.372Z,5970
2023-04-29T13:20:44.681Z,5752
2023-04-29T13:21:44.674Z,5844
2023-04-29T13:22:44.683Z,6388
2023-04-29T13:23:44.677Z,6307
2023-04-29T13:24:44.677Z,5870
2023-04-29T13:25:44.676Z,5820
2023-04-29T13:26:44.673Z,6005
2023-04-29T13:27:44.847Z,6159
2023-04-29T13:28:44.743Z,5935
2023-04-29T13:29:44.681Z,6117
2023-04-29T13:30:44.662Z,6565
2023-04-29T13:31:44.735Z,6829
2023-04-29T13:32:49.372Z,7046
2023-04-29T13:33:44.719Z,7245
2023-04-29T13:34:44.688Z,6808
2023-04-29T13:35:44.661Z,6661
2023-04-29T13:36:44.690Z,6666
2023-04-29T13:37:44.701Z,6224
2023-04-29T13:38:45.681Z,4950
2023-04-29T13:39:47.292Z,4510
2023-04-29T13:40:46.768Z,4209